Time;durP1;ratioP1;P1;durP2;ratioP2;P2;SDS_P1;SDS_P2;PMS_P1;PMS_P2;Temp;Humidity;BMP_temperature;BMP_pressure;BME280_temperature;BME280_humidity;BME280_pressure;Samples;Min_cycle;Max_cycle;Signal;HPM_P1;HPM_P2
2022/04/14 00:01:52;;;;;;;18.73;11.63;;;11.10;99.90;;;;;;5115417;28;20467;-79
2022/04/14 00:04:17;;;;;;;22.60;11.68;;;11.10;99.90;;;;;;5114254;28;20082;-78
2022/04/14 00:06:43;;;;;;;18.88;11.65;;;11.10;99.90;;;;;;5115003;28;20051;-78
2022/04/14 00:09:08;;;;;;;21.48;11.75;;;11.00;99.90;;;;;;5115255;28;20100;-78
2022/04/14 00:11:34;;;;;;;20.85;11.90;;;11.00;99.90;;;;;;5115392;28;20056;-80
2022/04/14 00:14:00;;;;;;;20.45;11.38;;;11.00;99.90;;;;;;5115132;28;20048;-78
2022/04/14 00:16:25;;;;;;;18.83;11.55;;;11.00;99.90;;;;;;5115327;28;20105;-78
2022/04/14 00:18:51;;;;;;;21.13;11.55;;;11.00;99.90;;;;;;5115249;28;20054;-80
2022/04/14 00:21:16;;;;;;;19.02;11.48;;;10.90;99.90;;;;;;5115075;28;20043;-77
2022/04/14 00:23:42;;;;;;;19.60;11.23;;;10.90;99.90;;;;;;5115019;28;20047;-78
2022/04/14 00:26:07;;;;;;;16.50;10.43;;;10.90;99.90;;;;;;5114989;28;20088;-79
2022/04/14 00:28:34;;;;;;;19.58;11.10;;;10.80;99.90;;;;;;5114613;28;20502;-79
2022/04/14 00:30:59;;;;;;;18.15;11.02;;;10.80;99.90;;;;;;5113625;28;20123;-78
2022/04/14 00:33:26;;;;;;;18.92;10.73;;;10.80;99.90;;;;;;5114502;28;20047;-79
2022/04/14 00:35:52;;;;;;;23.70;11.50;;;10.80;99.90;;;;;;5114732;28;20044;-77
2022/04/14 00:38:18;;;;;;;24.20;12.10;;;10.80;99.90;;;;;;5114074;28;20408;-78
2022/04/14 00:40:43;;;;;;;19.50;12.82;;;10.70;99.90;;;;;;5114553;28;20051;-80
2022/04/14 00:43:09;;;;;;;20.05;10.82;;;10.70;99.90;;;;;;5114596;28;20043;-78
2022/04/14 00:45:35;;;;;;;18.00;11.77;;;10.70;99.90;;;;;;5114585;28;20039;-76
2022/04/14 00:48:01;;;;;;;23.40;12.20;;;10.70;99.90;;;;;;5114480;28;20088;-78
2022/04/14 00:50:26;;;;;;;19.52;11.63;;;10.70;99.90;;;;;;5115043;28;20039;-78
2022/04/14 00:52:53;;;;;;;21.92;11.88;;;10.70;99.90;;;;;;5114719;28;20135;-79
2022/04/14 00:55:19;;;;;;;22.20;11.75;;;10.70;99.90;;;;;;5114299;28;20050;-79
2022/04/14 00:57:45;;;;;;;21.02;11.90;;;10.60;99.90;;;;;;5114452;28;20047;-78
2022/04/14 01:00:11;;;;;;;21.25;12.55;;;10.70;99.90;;;;;;5113327;28;20040;-78
2022/04/14 01:02:36;;;;;;;18.77;11.27;;;10.60;99.90;;;;;;5114392;28;20444;-76
2022/04/14 01:05:04;;;;;;;23.98;11.35;;;10.60;99.90;;;;;;5114711;28;20035;-77
2022/04/14 01:07:31;;;;;;;19.60;11.95;;;10.60;99.90;;;;;;5114325;28;20044;-77
2022/04/14 01:09:57;;;;;;;19.63;11.65;;;10.60;99.90;;;;;;5114103;28;20035;-78
2022/04/14 01:12:24;;;;;;;25.50;12.25;;;10.60;99.90;;;;;;5114358;28;20122;-78
2022/04/14 01:14:50;;;;;;;18.80;11.30;;;10.60;99.90;;;;;;5113032;28;20056;-80
2022/04/14 01:17:15;;;;;;;18.25;11.27;;;10.50;99.90;;;;;;5114002;28;20043;-80
2022/04/14 01:19:41;;;;;;;19.58;11.30;;;10.50;99.90;;;;;;5114369;28;20410;-79
2022/04/14 01:22:24;;;;;;;17.40;11.00;;;10.50;99.90;;;;;;5113076;28;20067;-80
2022/04/14 01:24:53;;;;;;;20.05;11.18;;;10.50;99.90;;;;;;5112857;28;20051;-81
2022/04/14 01:27:19;;;;;;;20.92;11.85;;;10.50;99.90;;;;;;5113841;28;20040;-78
2022/04/14 01:29:46;;;;;;;21.65;11.68;;;10.40;99.90;;;;;;5113918;28;20067;-81
2022/04/14 01:32:11;;;;;;;;;;;10.40;99.90;;;;;;5114208;28;20044;-78
2022/04/14 01:34:37;;;;;;;20.17;11.38;;;10.40;99.90;;;;;;5113858;28;19927;-77
2022/04/14 01:37:03;;;;;;;19.15;11.32;;;10.40;99.90;;;;;;5113913;28;20472;-78
2022/04/14 01:39:29;;;;;;;17.33;11.25;;;10.30;99.90;;;;;;5113948;28;20048;-77
2022/04/14 01:41:55;;;;;;;20.40;11.13;;;10.30;99.90;;;;;;5112795;28;20390;-79
2022/04/14 01:44:20;;;;;;;22.48;12.57;;;10.30;99.90;;;;;;5112617;28;20123;-79
2022/04/14 01:46:46;;;;;;;23.50;11.80;;;10.20;99.90;;;;;;5113799;28;20073;-78
2022/04/14 01:49:12;;;;;;;23.23;13.00;;;10.20;99.90;;;;;;5114969;28;20055;-77
2022/04/14 01:51:38;;;;;;;21.98;12.38;;;10.20;99.90;;;;;;5117728;28;20035;-78
2022/04/14 01:54:04;;;;;;;20.80;12.87;;;10.20;99.90;;;;;;5117853;28;20168;-78
2022/04/14 01:56:30;;;;;;;20.90;12.63;;;10.10;99.90;;;;;;5117413;28;20043;-77
2022/04/14 01:58:56;;;;;;;24.33;12.52;;;10.10;99.90;;;;;;5117639;28;20050;-79
2022/04/14 02:01:22;;;;;;;21.38;12.75;;;10.10;99.90;;;;;;5118031;28;20031;-78
2022/04/14 02:03:48;;;;;;;24.42;13.20;;;10.00;99.90;;;;;;5117419;28;20044;-78
2022/04/14 02:06:14;;;;;;;22.08;13.70;;;10.00;99.90;;;;;;5117783;28;20047;-79
2022/04/14 02:08:40;;;;;;;21.83;13.13;;;10.00;99.90;;;;;;5116701;28;20039;-78
2022/04/14 02:11:06;;;;;;;21.90;12.63;;;10.00;99.90;;;;;;5116957;28;20094;-78
2022/04/14 02:13:33;;;;;;;24.93;13.40;;;10.00;99.90;;;;;;5117444;28;20039;-77
2022/04/14 02:15:58;;;;;;;22.42;12.82;;;9.90;99.90;;;;;;5117393;28;20380;-77
2022/04/14 02:18:24;;;;;;;22.13;13.85;;;9.90;99.90;;;;;;5133453;27;20039;-79
2022/04/14 02:20:49;;;;;;;22.40;13.15;;;9.80;99.90;;;;;;5133437;27;20093;-77
2022/04/14 02:23:15;;;;;;;23.63;13.50;;;9.80;99.90;;;;;;5117351;28;20044;-77
2022/04/14 02:25:41;;;;;;;23.17;13.63;;;9.80;99.90;;;;;;5117179;28;20391;-79
2022/04/14 02:28:06;;;;;;;25.15;14.13;;;9.80;99.90;;;;;;5116812;28;20537;-78
2022/04/14 02:30:33;;;;;;;21.77;12.73;;;9.70;99.90;;;;;;5117092;28;20047;-78
2022/04/14 02:32:59;;;;;;;28.65;14.60;;;9.70;99.90;;;;;;5117495;27;20047;-77
2022/04/14 02:35:25;;;;;;;22.93;13.40;;;9.70;99.90;;;;;;5117279;28;20047;-77
2022/04/14 02:37:51;;;;;;;23.58;14.57;;;9.70;99.90;;;;;;5117073;28;20479;-78
2022/04/14 02:40:16;;;;;;;27.77;14.15;;;9.60;99.90;;;;;;5116875;28;20051;-79
2022/04/14 02:42:43;;;;;;;28.13;14.93;;;9.60;99.90;;;;;;5116912;28;20046;-79
2022/04/14 02:45:09;;;;;;;22.30;14.02;;;9.60;99.90;;;;;;5116845;28;20040;-78
2022/04/14 02:47:37;;;;;;;25.05;14.30;;;9.50;99.90;;;;;;5116758;28;20093;-79
2022/04/14 02:50:03;;;;;;;24.15;14.10;;;9.50;99.90;;;;;;5116965;28;20073;-80
2022/04/14 02:52:29;;;;;;;28.70;15.33;;;9.50;99.90;;;;;;5116391;28;20138;-79
2022/04/14 02:54:54;;;;;;;25.52;14.27;;;9.40;99.90;;;;;;5116612;28;20119;-78
2022/04/14 02:57:20;;;;;;;29.17;15.65;;;9.40;99.90;;;;;;5116604;28;20402;-77
2022/04/14 02:59:45;;;;;;;29.38;15.20;;;9.40;99.90;;;;;;5115883;28;20440;-79
2022/04/14 03:02:11;;;;;;;22.95;15.18;;;9.40;99.90;;;;;;5116463;28;20039;-80
2022/04/14 03:04:37;;;;;;;30.58;16.70;;;9.40;99.90;;;;;;5116431;28;20084;-78
2022/04/14 03:07:03;;;;;;;29.80;17.93;;;9.40;99.90;;;;;;5116412;27;20047;-78
2022/04/14 03:09:28;;;;;;;28.45;17.13;;;9.40;99.90;;;;;;5116351;28;20284;-77
2022/04/14 03:11:54;;;;;;;29.42;18.20;;;9.40;99.90;;;;;;5116735;28;20047;-77
2022/04/14 03:14:20;;;;;;;31.85;17.48;;;9.40;99.90;;;;;;5115870;28;20135;-78
2022/04/14 03:16:45;;;;;;;34.20;17.60;;;9.40;99.90;;;;;;5116203;28;20372;-78
2022/04/14 03:19:11;;;;;;;29.67;17.67;;;9.40;99.90;;;;;;5115889;28;20430;-79
2022/04/14 03:21:36;;;;;;;28.83;16.63;;;9.40;99.90;;;;;;5116117;28;20048;-77
2022/04/14 03:24:02;;;;;;;28.05;16.38;;;9.40;99.90;;;;;;5116018;28;20043;-78
2022/04/14 03:26:27;;;;;;;33.65;17.90;;;9.40;99.90;;;;;;5115900;28;20031;-79
2022/04/14 03:28:53;;;;;;;30.08;17.98;;;9.40;99.90;;;;;;5115675;28;20047;-77
2022/04/14 03:31:18;;;;;;;33.13;17.88;;;9.40;99.90;;;;;;5115657;28;20039;-77
2022/04/14 03:33:44;;;;;;;31.15;17.70;;;9.40;99.90;;;;;;5115775;28;20050;-79
2022/04/14 03:36:09;;;;;;;36.13;19.05;;;9.30;99.90;;;;;;5115769;28;20130;-78
2022/04/14 03:38:35;;;;;;;32.05;19.70;;;9.30;99.90;;;;;;5114677;28;20074;-78
2022/04/14 03:41:04;;;;;;;34.42;19.42;;;9.30;99.90;;;;;;5115725;28;20051;-77
2022/04/14 03:43:31;;;;;;;40.30;20.52;;;9.30;99.90;;;;;;5115655;28;20051;-77
2022/04/14 03:45:56;;;;;;;39.58;21.35;;;9.30;99.90;;;;;;5115530;28;20100;-79
2022/04/14 03:48:22;;;;;;;34.72;19.30;;;9.20;99.90;;;;;;5097424;28;20039;-78
2022/04/14 03:50:47;;;;;;;44.92;20.75;;;9.20;99.90;;;;;;5115540;28;20096;-79
2022/04/14 03:53:13;;;;;;;44.88;21.15;;;9.20;99.90;;;;;;5115366;28;20036;-77
2022/04/14 03:55:39;;;;;;;45.87;20.10;;;9.20;99.90;;;;;;5115405;28;20114;-78
2022/04/14 03:58:05;;;;;;;46.78;22.35;;;9.20;99.90;;;;;;5115372;28;20094;-79
2022/04/14 04:00:30;;;;;;;58.03;24.27;;;9.20;99.90;;;;;;5115317;28;20093;-77
2022/04/14 04:02:56;;;;;;;45.08;21.40;;;9.20;99.90;;;;;;5115302;28;20078;-78
2022/04/14 04:05:21;;;;;;;45.47;21.50;;;9.20;99.90;;;;;;5115203;28;20437;-78
2022/04/14 04:07:47;;;;;;;37.22;20.38;;;9.10;99.90;;;;;;5115216;28;20487;-80
2022/04/14 04:10:12;;;;;;;54.42;22.95;;;9.10;99.90;;;;;;5097194;28;20048;-80
2022/04/14 04:12:38;;;;;;;55.83;23.25;;;9.10;99.90;;;;;;5114561;28;20054;-79
2022/04/14 04:15:04;;;;;;;42.83;22.45;;;9.10;99.90;;;;;;5115104;28;20058;-79
2022/04/14 04:17:30;;;;;;;47.87;23.80;;;9.00;99.90;;;;;;5115274;28;20127;-78
2022/04/14 04:19:55;;;;;;;47.53;23.60;;;9.10;99.90;;;;;;5115370;28;20139;-78
2022/04/14 04:22:21;;;;;;;47.97;23.75;;;9.00;99.90;;;;;;5115046;28;20107;-79
2022/04/14 04:24:47;;;;;;;46.22;24.40;;;9.00;99.90;;;;;;5114918;28;20039;-78
2022/04/14 04:27:12;;;;;;;45.90;23.10;;;9.00;99.90;;;;;;5114743;28;20474;-79
2022/04/14 04:29:38;;;;;;;61.90;25.67;;;9.00;99.90;;;;;;5114707;28;20391;-79
2022/04/14 04:32:03;;;;;;;48.55;24.70;;;9.00;99.90;;;;;;5114690;28;20047;-78
2022/04/14 04:34:29;;;;;;;52.97;23.88;;;9.00;99.90;;;;;;5114740;28;20126;-78
2022/04/14 04:36:55;;;;;;;48.38;25.42;;;9.00;99.90;;;;;;5114733;28;20539;-77
2022/04/14 04:39:20;;;;;;;45.40;24.23;;;9.00;99.90;;;;;;5114649;28;20043;-77
2022/04/14 04:41:46;;;;;;;47.90;23.77;;;9.00;99.90;;;;;;5114511;28;20176;-78
2022/04/14 04:44:11;;;;;;;49.63;24.45;;;9.00;99.90;;;;;;5114497;28;20126;-79
2022/04/14 04:46:37;;;;;;;41.28;21.85;;;9.00;99.90;;;;;;5114484;28;20130;-78
2022/04/14 04:49:02;;;;;;;51.47;24.05;;;8.90;99.90;;;;;;5114697;28;20089;-79
2022/04/14 04:51:28;;;;;;;39.97;21.92;;;8.90;99.90;;;;;;5114358;28;20046;-77
2022/04/14 04:53:54;;;;;;;50.15;24.80;;;8.90;99.90;;;;;;5114318;28;20066;-79
2022/04/14 04:56:19;;;;;;;51.72;25.52;;;8.90;99.90;;;;;;5113261;28;20043;-79
2022/04/14 04:58:46;;;;;;;60.38;26.10;;;8.80;99.90;;;;;;5113283;28;20487;-79
2022/04/14 05:01:12;;;;;;;45.17;24.17;;;8.90;99.90;;;;;;5114173;28;20046;-79
2022/04/14 05:03:38;;;;;;;43.83;22.95;;;8.80;99.90;;;;;;5113201;28;20047;-77
2022/04/14 05:06:03;;;;;;;40.90;22.50;;;8.80;99.90;;;;;;5113749;28;20044;-79
2022/04/14 05:08:32;;;;;;;60.35;23.63;;;8.80;99.90;;;;;;5114090;28;20065;-78
2022/04/14 05:10:57;;;;;;;45.83;22.88;;;8.80;99.90;;;;;;5114017;28;20052;-79
2022/04/14 05:13:23;;;;;;;60.17;26.45;;;8.70;99.90;;;;;;5114007;28;20043;-77
2022/04/14 05:15:48;;;;;;;43.63;23.90;;;8.70;99.90;;;;;;5114402;28;20047;-78
2022/04/14 05:18:14;;;;;;;49.95;24.13;;;8.70;99.90;;;;;;5113971;28;20126;-77
2022/04/14 05:20:42;;;;;;;45.13;22.75;;;8.70;99.90;;;;;;5113996;28;20117;-77
2022/04/14 05:23:08;;;;;;;45.88;23.95;;;8.70;99.90;;;;;;5113708;28;20040;-79
2022/04/14 05:25:34;;;;;;;52.90;24.50;;;8.70;99.90;;;;;;5113868;28;20096;-78
2022/04/14 05:27:59;;;;;;;44.65;23.30;;;8.70;99.90;;;;;;5114325;28;20067;-78
2022/04/14 05:30:25;;;;;;;52.47;24.25;;;8.70;99.90;;;;;;5129704;28;20052;-78
2022/04/14 05:32:51;;;;;;;50.25;24.70;;;8.70;99.90;;;;;;5113760;28;20035;-79
2022/04/14 05:35:16;;;;;;;105.82;28.48;;;8.70;99.90;;;;;;5113904;28;20485;-78
2022/04/14 05:37:42;;;;;;;87.00;26.17;;;8.70;99.90;;;;;;5113794;28;20104;-78
2022/04/14 05:40:08;;;;;;;62.58;27.00;;;8.80;99.90;;;;;;5113803;28;20046;-79
2022/04/14 05:42:34;;;;;;;51.78;25.95;;;8.80;99.90;;;;;;5114037;28;20043;-79
2022/04/14 05:45:00;;;;;;;154.43;29.20;;;8.80;99.90;;;;;;5113728;28;20493;-79
2022/04/14 05:47:26;;;;;;;96.00;27.02;;;8.90;99.90;;;;;;5113898;28;20117;-78
2022/04/14 05:49:52;;;;;;;61.80;25.70;;;8.90;99.90;;;;;;5113642;28;20483;-77
2022/04/14 05:52:18;;;;;;;117.68;25.80;;;9.00;99.90;;;;;;5113466;28;20035;-78
2022/04/14 05:54:47;;;;;;;90.55;25.77;;;9.00;99.90;;;;;;5113616;28;20042;-78
2022/04/14 05:57:14;;;;;;;90.82;26.17;;;9.00;99.90;;;;;;5113566;28;20478;-80
2022/04/14 05:59:40;;;;;;;70.50;24.08;;;9.10;99.90;;;;;;5113601;28;20153;-78
2022/04/14 06:02:06;;;;;;;194.65;31.10;;;9.10;99.90;;;;;;5113523;28;20036;-78
2022/04/14 06:04:32;;;;;;;51.05;24.55;;;9.20;99.90;;;;;;5113547;28;20040;-78
2022/04/14 06:06:58;;;;;;;58.03;25.50;;;9.20;99.90;;;;;;5129322;28;20441;-79
2022/04/14 06:09:23;;;;;;;55.97;27.90;;;9.30;99.90;;;;;;5113444;28;20046;-79
2022/04/14 06:11:49;;;;;;;45.90;25.67;;;9.30;99.90;;;;;;5113788;28;20497;-79
2022/04/14 06:14:14;;;;;;;47.17;26.80;;;9.40;99.90;;;;;;5112619;28;20468;-77
2022/04/14 06:16:40;;;;;;;48.72;26.15;;;9.50;99.90;;;;;;5113788;28;20169;-80
2022/04/14 06:19:05;;;;;;;56.33;28.30;;;9.60;99.90;;;;;;5113521;28;20126;-79
2022/04/14 06:21:31;;;;;;;51.72;27.77;;;9.70;99.90;;;;;;5113617;28;20040;-78
2022/04/14 06:23:57;;;;;;;57.85;27.45;;;9.80;99.90;;;;;;5113386;28;20113;-78
2022/04/14 06:26:23;;;;;;;50.93;27.00;;;9.80;99.90;;;;;;5113410;28;20079;-75
2022/04/14 06:28:48;;;;;;;45.85;27.20;;;9.90;99.90;;;;;;5113351;28;20132;-78
2022/04/14 06:31:14;;;;;;;46.47;26.88;;;10.00;99.90;;;;;;5113132;28;20483;-79
2022/04/14 06:33:40;;;;;;;46.72;27.15;;;10.10;99.90;;;;;;5113366;28;20047;-78
2022/04/14 06:36:06;;;;;;;42.85;25.95;;;10.20;99.90;;;;;;5115364;28;20044;-78
2022/04/14 06:38:32;;;;;;;49.28;26.92;;;10.30;99.90;;;;;;5117180;28;20498;-77
2022/04/14 06:40:57;;;;;;;43.45;26.40;;;10.50;99.90;;;;;;5117050;28;20558;-77
2022/04/14 06:43:24;;;;;;;44.30;25.92;;;10.60;99.90;;;;;;5116983;28;20468;-78
2022/04/14 06:45:51;;;;;;;41.40;25.27;;;10.70;99.90;;;;;;5115956;28;20539;-76
2022/04/14 06:48:16;;;;;;;40.10;24.75;;;10.80;99.90;;;;;;5116958;28;20088;-80
2022/04/14 06:50:42;;;;;;;42.67;24.60;;;11.00;99.90;;;;;;5116871;28;20043;-78
2022/04/14 06:53:08;;;;;;;42.55;24.70;;;11.10;99.90;;;;;;5132730;27;20040;-77
2022/04/14 06:55:35;;;;;;;39.50;24.30;;;11.20;99.90;;;;;;5117277;28;20042;-77
2022/04/14 06:58:01;;;;;;;39.67;23.50;;;11.40;99.90;;;;;;5116763;28;20043;-78
2022/04/14 07:00:27;;;;;;;40.10;22.85;;;11.50;99.90;;;;;;5116760;27;20052;-79
2022/04/14 07:02:54;;;;;;;44.30;24.10;;;11.60;99.90;;;;;;5115809;28;20074;-79
2022/04/14 07:05:22;;;;;;;35.88;22.70;;;11.70;99.90;;;;;;5116644;28;20082;-79
2022/04/14 07:07:48;;;;;;;39.03;22.67;;;11.70;99.90;;;;;;5116498;28;20066;-79
2022/04/14 07:10:14;;;;;;;37.45;22.23;;;11.80;99.90;;;;;;5116107;28;20055;-77
2022/04/14 07:12:40;;;;;;;30.80;18.30;;;11.90;99.90;;;;;;5116287;28;20052;-78
2022/04/14 07:15:06;;;;;;;41.05;20.42;;;12.00;99.90;;;;;;5116422;28;20406;-79
2022/04/14 07:17:33;;;;;;;33.37;20.50;;;12.10;99.90;;;;;;5116477;27;20439;-78
2022/04/14 07:19:59;;;;;;;;;;;12.10;99.90;;;;;;5116515;28;20663;-78
2022/04/14 07:22:25;;;;;;;33.63;19.80;;;12.20;99.90;;;;;;5115789;28;19919;-79
2022/04/14 07:24:50;;;;;;;36.90;20.60;;;12.30;99.90;;;;;;5116047;28;20043;-77
2022/04/14 07:27:21;;;;;;;34.58;19.38;;;12.40;99.90;;;;;;5132222;27;20047;-78
2022/04/14 07:29:47;;;;;;;33.38;20.75;;;12.50;99.90;;;;;;5116061;28;20055;-79
2022/04/14 07:32:13;;;;;;;31.03;18.60;;;12.60;99.90;;;;;;5116144;28;20047;-77
2022/04/14 07:34:39;;;;;;;33.00;19.90;;;12.70;99.90;;;;;;5116077;28;20051;-79
2022/04/14 07:37:05;;;;;;;28.73;18.45;;;12.80;99.90;;;;;;5116024;28;20518;-78
2022/04/14 07:39:31;;;;;;;32.05;20.10;;;12.90;99.90;;;;;;5114622;28;20503;-79
2022/04/14 07:41:56;;;;;;;31.20;18.77;;;13.00;99.90;;;;;;5115899;27;20122;-80
2022/04/14 07:44:22;;;;;;;29.58;18.35;;;13.20;99.90;;;;;;5116113;28;20054;-77
2022/04/14 07:46:47;;;;;;;30.60;18.10;;;13.30;99.90;;;;;;5115602;28;20134;-76
2022/04/14 07:49:13;;;;;;;28.65;18.08;;;13.30;99.90;;;;;;5115692;28;20135;-75
2022/04/14 07:51:40;;;;;;;29.42;18.98;;;13.40;99.90;;;;;;5115661;28;20151;-78
2022/04/14 07:54:06;;;;;;;25.70;17.45;;;13.50;99.90;;;;;;5115689;28;20058;-79
2022/04/14 07:56:33;;;;;;;25.50;16.27;;;13.60;99.90;;;;;;5115166;28;20507;-77
2022/04/14 07:58:59;;;;;;;26.67;15.30;;;13.70;99.90;;;;;;5115376;28;20051;-78
2022/04/14 08:01:25;;;;;;;23.08;14.00;;;13.80;99.90;;;;;;5114526;28;20135;-77
2022/04/14 08:03:51;;;;;;;21.88;13.43;;;13.90;99.90;;;;;;5114121;28;20051;-78
2022/04/14 08:06:17;;;;;;;27.35;14.45;;;14.00;99.90;;;;;;5115416;28;20043;-78
2022/04/14 08:08:42;;;;;;;25.45;13.73;;;14.10;99.90;;;;;;5115252;28;20039;-78
2022/04/14 08:11:11;;;;;;;24.73;13.52;;;14.30;99.90;;;;;;5113685;28;20235;-78
2022/04/14 08:13:38;;;;;;;20.02;11.75;;;14.40;99.90;;;;;;5115358;28;20559;-79
2022/04/14 08:16:08;;;;;;;23.27;12.80;;;14.50;99.90;;;;;;5115496;28;20044;-79
2022/04/14 08:18:35;;;;;;;20.45;12.88;;;14.50;99.90;;;;;;5115360;28;20047;-76
2022/04/14 08:21:01;;;;;;;22.55;13.07;;;14.60;99.90;;;;;;5115512;28;20043;-78
2022/04/14 08:23:26;;;;;;;20.48;11.70;;;14.70;99.90;;;;;;5114868;28;20140;-79
2022/04/14 08:25:52;;;;;;;19.38;11.38;;;14.80;99.90;;;;;;5114769;28;20043;-77
2022/04/14 08:28:17;;;;;;;15.75;9.75;;;15.00;99.90;;;;;;5131137;27;20051;-80
2022/04/14 08:30:44;;;;;;;18.33;10.37;;;15.00;99.90;;;;;;5115227;28;20462;-79
2022/04/14 08:33:12;;;;;;;17.45;11.00;;;15.10;99.90;;;;;;5114852;28;20052;-79
2022/04/14 08:35:37;;;;;;;19.15;11.13;;;15.20;99.90;;;;;;5115586;28;20044;-80
2022/04/14 08:38:06;;;;;;;19.10;11.70;;;15.20;99.90;;;;;;5115025;28;20067;-79
2022/04/14 08:40:40;;;;;;;18.27;11.18;;;15.40;99.90;;;;;;5114886;28;20040;-78
2022/04/14 08:43:08;;;;;;;18.48;11.48;;;15.50;99.90;;;;;;5115386;27;20039;-81
2022/04/14 08:45:53;;;;;;;23.58;12.18;;;15.50;99.90;;;;;;5115641;28;20048;-80
2022/04/14 08:48:21;;;;;;;23.15;12.50;;;15.60;99.90;;;;;;5115111;28;20044;-78
2022/04/14 08:50:49;;;;;;;21.40;11.55;;;15.70;99.90;;;;;;5115305;28;20082;-78
2022/04/14 08:53:19;;;;;;;16.90;11.40;;;15.80;99.90;;;;;;5114971;28;20039;-79
2022/04/14 08:55:46;;;;;;;16.48;11.25;;;15.90;99.90;;;;;;5115017;28;20058;-80
2022/04/14 08:58:18;;;;;;;18.25;10.68;;;16.00;99.90;;;;;;5114679;28;20043;-80
2022/04/14 09:00:44;;;;;;;19.52;11.45;;;16.00;99.90;;;;;;5115139;28;20421;-78
2022/04/14 09:03:13;;;;;;;15.63;10.83;;;16.20;99.90;;;;;;5115334;28;20044;-80
2022/04/14 09:05:39;;;;;;;19.23;10.63;;;16.20;99.90;;;;;;5114528;28;20044;-80
2022/04/14 09:08:05;;;;;;;13.93;10.27;;;16.30;99.90;;;;;;5114136;28;20127;-77
2022/04/14 09:10:30;;;;;;;15.17;10.87;;;16.40;99.90;;;;;;5115957;28;20055;-80
2022/04/14 09:12:57;;;;;;;16.60;11.07;;;16.40;99.90;;;;;;5116189;28;20438;-77
2022/04/14 09:15:23;;;;;;;17.58;10.07;;;16.50;99.90;;;;;;5114281;28;20479;-79
2022/04/14 09:17:48;;;;;;;15.40;10.37;;;16.50;99.90;;;;;;5114405;28;20054;-77
2022/04/14 09:20:36;;;;;;;15.27;10.75;;;16.60;99.90;;;;;;5114889;28;20047;-79
2022/04/14 09:23:22;;;;;;;16.63;10.80;;;16.60;99.90;;;;;;5114562;28;20047;-79
2022/04/14 09:26:13;;;;;;;16.20;10.27;;;16.70;99.90;;;;;;5114353;28;20051;-77
2022/04/14 09:28:40;;;;;;;14.05;9.90;;;16.90;99.90;;;;;;5115541;28;20495;-80
2022/04/14 09:31:11;;;;;;;13.32;10.00;;;17.00;99.90;;;;;;5115104;28;20047;-79
2022/04/14 09:33:48;;;;;;;16.45;10.27;;;17.10;99.90;;;;;;5116528;28;20039;-78
2022/04/14 09:36:15;;;;;;;;;;;17.30;99.90;;;;;;5120524;28;20067;-79
2022/04/14 09:39:06;;;;;;;13.43;9.35;;;17.30;99.90;;;;;;5117680;28;19920;-78
2022/04/14 09:41:42;;;;;;;14.85;10.27;;;17.50;99.90;;;;;;5120228;28;20097;-78
2022/04/14 09:44:09;;;;;;;13.82;9.75;;;17.70;99.90;;;;;;5118007;28;20519;-77
2022/04/14 09:46:36;;;;;;;14.40;9.20;;;17.80;99.90;;;;;;5118448;28;20436;-78
2022/04/14 09:49:14;;;;;;;15.68;9.63;;;18.00;99.90;;;;;;5118510;28;20146;-78
2022/04/14 09:51:44;;;;;;;18.02;9.35;;;18.20;99.90;;;;;;5119516;28;20548;-78
2022/04/14 09:54:27;;;;;;;12.45;9.77;;;18.30;99.90;;;;;;5118414;28;20543;-79
2022/04/14 09:56:57;;;;;;;13.18;9.18;;;18.40;99.90;;;;;;5115318;28;20127;-78
2022/04/14 09:59:30;;;;;;;13.88;9.38;;;18.40;99.90;;;;;;5114837;28;20047;-80
2022/04/14 10:02:10;;;;;;;13.38;8.82;;;18.30;99.90;;;;;;5114823;28;20105;-80
2022/04/14 10:04:38;;;;;;;11.43;8.30;;;18.00;99.90;;;;;;5114343;28;20088;-79
2022/04/14 10:07:07;;;;;;;12.75;7.72;;;17.70;99.90;;;;;;5113461;28;20460;-78
2022/04/14 10:09:35;;;;;;;9.82;7.68;;;17.50;99.90;;;;;;5114184;28;20556;-79
2022/04/14 10:12:01;;;;;;;10.55;8.10;;;17.50;99.90;;;;;;5117872;28;20046;-80
2022/04/14 10:14:26;;;;;;;12.98;9.02;;;17.50;99.90;;;;;;5117805;28;20052;-78
2022/04/14 10:16:53;;;;;;;11.37;7.93;;;17.50;99.90;;;;;;5118022;28;20145;-80
2022/04/14 10:19:19;;;;;;;12.65;8.00;;;17.50;99.90;;;;;;5117836;28;20503;-78
2022/04/14 10:21:45;;;;;;;13.20;9.67;;;17.40;99.90;;;;;;5118493;28;20043;-80
2022/04/14 10:24:14;;;;;;;9.98;8.07;;;17.50;99.90;;;;;;5117867;28;20138;-77
2022/04/14 10:26:42;;;;;;;13.57;8.80;;;17.50;99.90;;;;;;5117727;28;20433;-80
2022/04/14 10:29:12;;;;;;;12.55;7.90;;;17.40;99.90;;;;;;5118265;28;20043;-77
2022/04/14 10:31:40;;;;;;;10.75;8.00;;;17.50;99.90;;;;;;5118207;27;20061;-78
2022/04/14 10:34:07;;;;;;;10.18;7.15;;;17.70;99.90;;;;;;5119704;28;20368;-77
2022/04/14 10:36:41;;;;;;;10.50;6.88;;;17.70;99.90;;;;;;5118896;28;20047;-79
2022/04/14 10:39:10;;;;;;;11.00;7.05;;;17.90;99.90;;;;;;5118220;28;20067;-78
2022/04/14 10:41:41;;;;;;;10.13;7.50;;;18.10;99.90;;;;;;5119092;28;20085;-79
2022/04/14 10:44:07;;;;;;;11.73;7.95;;;18.20;99.90;;;;;;5118356;28;20048;-77
2022/04/14 10:46:41;;;;;;;11.90;7.97;;;18.30;99.90;;;;;;5117700;28;20081;-79
2022/04/14 10:49:33;;;;;;;12.00;8.80;;;18.30;99.90;;;;;;5118570;28;20043;-80
2022/04/14 10:52:25;;;;;;;15.02;9.20;;;18.20;99.90;;;;;;5118299;28;20354;-78
2022/04/14 10:55:01;;;;;;;14.05;9.68;;;18.00;99.90;;;;;;5117942;28;20557;-78
2022/04/14 10:57:40;;;;;;;14.73;9.52;;;17.90;99.90;;;;;;5117598;28;20047;-80
2022/04/14 11:00:32;;;;;;;12.90;9.50;;;17.90;99.90;;;;;;5117830;28;20057;-77
2022/04/14 11:03:09;;;;;;;14.05;9.95;;;18.00;99.90;;;;;;5109288;27;20126;-80
2022/04/14 11:05:43;;;;;;;19.95;8.80;;;18.00;99.90;;;;;;5117609;28;20043;-77
2022/04/14 11:08:31;;;;;;;14.80;9.85;;;18.20;99.90;;;;;;5119056;28;20048;-78
2022/04/14 11:11:15;;;;;;;13.52;9.98;;;18.30;99.90;;;;;;5116850;28;20055;-80
2022/04/14 11:13:53;;;;;;;15.02;8.93;;;18.40;99.90;;;;;;5117943;28;20086;-78
2022/04/14 11:16:38;;;;;;;11.25;7.15;;;18.40;99.90;;;;;;5118320;28;20062;-77
2022/04/14 11:19:24;;;;;;;9.57;6.35;;;18.40;99.90;;;;;;5117181;28;20550;-80
2022/04/14 11:22:02;;;;;;;7.97;5.05;;;18.50;99.90;;;;;;5116756;28;20505;-78
2022/04/14 11:24:36;;;;;;;;;;;18.60;99.90;;;;;;5117945;28;20079;-79
2022/04/14 11:27:24;;;;;;;9.15;5.32;;;18.70;99.90;;;;;;5118108;28;19920;-78
2022/04/14 11:29:57;;;;;;;6.30;4.55;;;18.80;99.90;;;;;;5117458;28;20093;-80
2022/04/14 11:32:37;;;;;;;6.28;4.28;;;19.00;99.90;;;;;;5117564;28;20479;-78
2022/04/14 11:35:15;;;;;;;5.38;3.53;;;19.00;99.90;;;;;;5116861;27;20051;-78
2022/04/14 11:37:43;;;;;;;5.13;3.13;;;19.00;99.90;;;;;;5117125;28;20120;-79
2022/04/14 11:40:25;;;;;;;6.03;3.38;;;18.90;99.90;;;;;;5116181;28;20085;-77
2022/04/14 11:42:57;;;;;;;4.28;2.53;;;19.00;99.90;;;;;;5116857;28;20051;-77
2022/04/14 11:45:25;;;;;;;5.55;2.60;;;19.20;99.90;;;;;;5116899;28;20043;-77
2022/04/14 11:47:54;;;;;;;5.07;2.40;;;19.30;99.90;;;;;;5116443;28;20040;-80
2022/04/14 11:50:25;;;;;;;3.13;2.63;;;19.40;99.90;;;;;;5115727;28;20105;-77
2022/04/14 11:52:58;;;;;;;4.65;3.05;;;19.50;99.90;;;;;;5116162;28;20063;-78
2022/04/14 11:55:40;;;;;;;6.10;3.05;;;19.50;99.90;;;;;;5115812;28;20047;-80
2022/04/14 11:58:10;;;;;;;4.90;2.67;;;19.70;99.90;;;;;;5116747;27;20040;-77
2022/04/14 12:00:49;;;;;;;5.13;2.80;;;19.80;99.90;;;;;;5116457;28;20089;-79
2022/04/14 12:03:28;;;;;;;4.70;3.08;;;19.90;99.90;;;;;;5116369;28;20046;-79
2022/04/14 12:05:54;;;;;;;7.80;3.45;;;19.90;99.90;;;;;;5115729;28;20544;-79
2022/04/14 12:08:20;;;;;;;5.90;3.13;;;20.00;99.90;;;;;;5116343;28;20043;-77
2022/04/14 12:10:46;;;;;;;6.20;3.10;;;19.80;99.90;;;;;;5115898;28;20062;-76
2022/04/14 12:13:12;;;;;;;7.53;2.87;;;19.90;99.90;;;;;;5116130;28;20458;-78
2022/04/14 12:15:38;;;;;;;5.50;2.58;;;19.60;99.90;;;;;;5115825;28;20055;-80
2022/04/14 12:18:08;;;;;;;5.10;2.97;;;19.40;99.90;;;;;;5115741;28;20415;-78
2022/04/14 12:20:40;;;;;;;7.22;3.13;;;19.00;99.90;;;;;;5115667;28;20048;-80
2022/04/14 12:23:10;;;;;;;4.97;2.55;;;18.80;99.90;;;;;;5116037;28;20174;-80
2022/04/14 12:25:37;;;;;;;6.05;2.92;;;18.80;99.90;;;;;;5115953;28;20044;-80
2022/04/14 12:28:03;;;;;;;;;;;19.00;99.90;;;;;;5116065;28;20058;-78
2022/04/14 12:30:30;;;;;;;7.10;3.22;;;19.20;99.90;;;;;;5116057;28;19970;-79
2022/04/14 12:33:06;;;;;;;6.55;2.40;;;19.40;99.90;;;;;;5115156;28;20403;-79
2022/04/14 12:35:36;;;;;;;5.43;2.93;;;19.70;99.90;;;;;;5115754;28;20399;-79
2022/04/14 12:38:19;;;;;;;6.93;2.78;;;19.70;99.90;;;;;;5115566;28;20317;-79
2022/04/14 12:41:06;;;;;;;5.22;2.72;;;19.70;99.90;;;;;;5116256;28;20177;-81